2019/02/19 21:30 VVNB 192130Z 10006KT 7000 SCT009 BKN017 24/24 Q1013 NOSIG
2019/02/19 21:30 VVDN 192130Z 18001KT 6000 FEW015 BKN060 24/23 Q1014 NOSIG
2019/02/19 21:30 VVTS 192130Z 11006KT 080V150 9999 FEW017 SCT050 26/24 Q1013 NOSIG
2019/02/19 21:30 VVPB 192130Z VRB01KT 4000 BR FEW020 22/22 Q1014 NOSIG

Powered by MinhViet JSC.